Time;durP1;ratioP1;P1;durP2;ratioP2;P2;SDS_P1;SDS_P2;PMS_P1;PMS_P2;Temp;Humidity;BMP_temperature;BMP_pressure;BME280_temperature;BME280_humidity;BME280_pressure;Samples;Min_cycle;Max_cycle;Signal;HPM_P1;HPM_P2
2023/04/13 00:00:09;;;;;;;30.73;17.48;;;;;;;;;;5052391;28;20044;-70
2023/04/13 00:02:37;;;;;;;30.65;16.30;;;;;;;;;;5062934;28;20025;-70
2023/04/13 00:05:08;;;;;;;27.05;16.60;;;;;;;;;;5061181;28;20112;-70
2023/04/13 00:07:33;;;;;;;28.90;16.30;;;;;;;;;;5049341;28;20037;-70
2023/04/13 00:10:01;;;;;;;28.20;16.50;;;;;;;;;;5064396;28;20024;-72
2023/04/13 00:12:26;;;;;;;31.45;17.38;;;;;;;;;;5049928;28;20093;-70
2023/04/13 00:14:52;;;;;;;31.13;16.85;;;;;;;;;;5048581;28;20463;-70
2023/04/13 00:17:17;;;;;;;32.67;17.07;;;;;;;;;;5075607;28;20803;-71
2023/04/13 00:19:46;;;;;;;32.60;17.63;;;;;;;;;;5046247;28;20284;-69
2023/04/13 00:22:12;;;;;;;31.65;18.02;;;;;;;;;;5063075;28;20308;-71
2023/04/13 00:24:37;;;;;;;34.95;17.80;;;;;;;;;;5062719;28;20044;-71
2023/04/13 00:27:03;;;;;;;30.53;16.87;;;;;;;;;;5063313;28;20739;-70
2023/04/13 00:29:29;;;;;;;31.23;17.50;;;;;;;;;;5057005;28;20056;-68
2023/04/13 00:31:54;;;;;;;30.63;17.20;;;;;;;;;;5058693;28;20071;-69
2023/04/13 00:34:20;;;;;;;32.53;17.90;;;;;;;;;;5046915;28;20698;-68
2023/04/13 00:36:45;;;;;;;31.20;17.13;;;;;;;;;;5067471;28;20115;-69
2023/04/13 00:39:10;;;;;;;34.00;17.93;;;;;;;;;;5049935;28;20056;-68
2023/04/13 00:41:35;;;;;;;29.27;16.77;;;;;;;;;;5050037;28;20900;-68
2023/04/13 00:44:01;;;;;;;32.07;17.47;;;;;;;;;;5043823;28;21414;-69
2023/04/13 00:46:28;;;;;;;33.90;17.75;;;;;;;;;;5068335;28;20024;-68
2023/04/13 00:48:54;;;;;;;29.13;16.65;;;;;;;;;;5040727;28;20063;-69
2023/04/13 00:51:20;;;;;;;31.30;17.33;;;;;;;;;;5065577;28;20064;-69
2023/04/13 00:53:45;;;;;;;31.52;17.95;;;;;;;;;;5043598;28;20053;-69
2023/04/13 00:56:11;;;;;;;32.58;16.75;;;;;;;;;;5044787;28;21219;-69
2023/04/13 00:58:36;;;;;;;29.63;17.38;;;;;;;;;;5060581;28;20037;-69
2023/04/13 01:01:02;;;;;;;32.70;17.17;;;;;;;;;;5064188;28;20042;-70
2023/04/13 01:03:28;;;;;;;31.05;17.48;;;;;;;;;;5064776;28;20055;-69
2023/04/13 01:06:04;;;;;;;29.08;16.35;;;;;;;;;;5046570;28;20024;-69
2023/04/13 01:08:44;;;;;;;30.45;17.20;;;;;;;;;;5066947;28;20036;-69
2023/04/13 01:11:24;;;;;;;26.55;15.75;;;;;;;;;;5067370;28;20032;-69
2023/04/13 01:13:54;;;;;;;28.17;16.15;;;;;;;;;;5067616;28;20028;-70
2023/04/13 01:16:26;;;;;;;31.40;17.30;;;;;;;;;;5062768;28;20670;-68
2023/04/13 01:18:52;;;;;;;28.73;16.98;;;;;;;;;;5048373;28;20035;-68
2023/04/13 01:21:20;;;;;;;29.30;16.10;;;;;;;;;;5060254;28;20040;-69
2023/04/13 01:23:52;;;;;;;29.65;17.42;;;;;;;;;;5043166;28;20039;-69
2023/04/13 01:26:21;;;;;;;30.15;17.52;;;;;;;;;;5060094;28;20024;-68
2023/04/13 01:28:47;;;;;;;30.77;17.02;;;;;;;;;;5065471;28;20111;-69
2023/04/13 01:31:12;;;;;;;28.40;15.65;;;;;;;;;;5047693;28;20167;-69
2023/04/13 01:33:40;;;;;;;34.50;16.75;;;;;;;;;;5060761;28;20039;-69
2023/04/13 01:36:07;;;;;;;29.80;15.55;;;;;;;;;;5059173;28;20033;-69
2023/04/13 01:38:32;;;;;;;31.08;15.93;;;;;;;;;;5056158;28;20106;-69
2023/04/13 01:40:58;;;;;;;30.70;16.83;;;;;;;;;;5058267;28;20078;-70
2023/04/13 01:43:24;;;;;;;29.00;16.45;;;;;;;;;;5061210;28;20430;-70
2023/04/13 01:45:59;;;;;;;35.13;18.52;;;;;;;;;;5061221;28;20276;-70
2023/04/13 01:48:30;;;;;;;30.30;17.02;;;;;;;;;;5062548;28;20482;-71
2023/04/13 01:51:07;;;;;;;30.50;16.65;;;;;;;;;;5037327;28;20407;-71
2023/04/13 01:53:37;;;;;;;28.08;15.88;;;;;;;;;;5059714;28;20033;-71
2023/04/13 01:56:03;;;;;;;26.17;15.07;;;;;;;;;;5061319;28;20047;-71
2023/04/13 01:58:32;;;;;;;27.35;16.00;;;;;;;;;;5060991;28;20032;-71
2023/04/13 02:00:57;;;;;;;30.00;16.00;;;;;;;;;;5065783;28;20107;-71
2023/04/13 02:03:23;;;;;;;26.63;15.75;;;;;;;;;;5041274;28;20660;-71
2023/04/13 02:05:49;;;;;;;31.60;15.47;;;;;;;;;;5060391;28;20569;-70
2023/04/13 02:08:17;;;;;;;29.00;16.00;;;;;;;;;;5060908;28;20024;-70
2023/04/13 02:10:43;;;;;;;27.77;15.38;;;;;;;;;;5062852;28;20028;-70
2023/04/13 02:13:08;;;;;;;31.67;15.70;;;;;;;;;;5058157;28;20056;-71
2023/04/13 02:15:34;;;;;;;27.35;15.57;;;;;;;;;;5049523;28;20055;-70
2023/04/13 02:18:00;;;;;;;27.75;15.73;;;;;;;;;;5059529;28;20032;-70
2023/04/13 02:20:25;;;;;;;29.40;16.30;;;;;;;;;;5065309;28;20055;-71
2023/04/13 02:22:50;;;;;;;27.70;15.47;;;;;;;;;;5044565;28;20269;-69
2023/04/13 02:25:16;;;;;;;28.90;15.53;;;;;;;;;;5064602;28;20043;-71
2023/04/13 02:27:41;;;;;;;27.58;16.10;;;;;;;;;;5051409;28;20645;-71
2023/04/13 02:30:08;;;;;;;27.25;15.15;;;;;;;;;;5067964;28;20032;-71
2023/04/13 02:32:34;;;;;;;30.27;16.08;;;;;;;;;;5047657;28;20024;-70
2023/04/13 02:35:00;;;;;;;27.10;15.10;;;;;;;;;;5064797;28;20504;-71
2023/04/13 02:37:28;;;;;;;25.23;14.98;;;;;;;;;;5061119;28;20117;-71
2023/04/13 02:39:54;;;;;;;27.52;15.18;;;;;;;;;;5049118;28;20036;-71
2023/04/13 02:42:20;;;;;;;27.80;16.08;;;;;;;;;;5066105;28;20034;-71
2023/04/13 02:44:45;;;;;;;34.20;18.02;;;;;;;;;;5048851;28;20496;-71
2023/04/13 02:47:11;;;;;;;38.17;20.42;;;;;;;;;;5056792;28;20024;-73
2023/04/13 02:49:36;;;;;;;37.45;21.33;;;;;;;;;;5046351;28;20044;-70
2023/04/13 02:52:01;;;;;;;36.17;20.27;;;;;;;;;;5056654;28;20029;-71
2023/04/13 02:54:27;;;;;;;31.13;17.95;;;;;;;;;;5055588;28;20032;-71
2023/04/13 02:56:52;;;;;;;30.25;17.10;;;;;;;;;;5039343;28;20171;-70
2023/04/13 02:59:17;;;;;;;31.20;16.35;;;;;;;;;;5064032;28;20465;-71
2023/04/13 03:01:44;;;;;;;25.57;15.07;;;;;;;;;;5063996;28;20111;-70
2023/04/13 03:04:09;;;;;;;30.77;15.77;;;;;;;;;;5048773;28;21110;-75
2023/04/13 03:06:35;;;;;;;31.15;15.80;;;;;;;;;;5063476;28;20016;-75
2023/04/13 03:09:00;;;;;;;27.63;14.88;;;;;;;;;;5045762;28;20035;-75
2023/04/13 03:11:25;;;;;;;28.48;15.50;;;;;;;;;;5056173;28;20128;-75
2023/04/13 03:13:52;;;;;;;28.20;14.90;;;;;;;;;;5058856;28;20029;-74
2023/04/13 03:16:18;;;;;;;28.60;15.95;;;;;;;;;;5057016;28;20024;-76
2023/04/13 03:18:44;;;;;;;28.85;15.40;;;;;;;;;;5069362;28;20877;-76
2023/04/13 03:21:09;;;;;;;25.65;14.80;;;;;;;;;;5067247;28;20040;-76
2023/04/13 03:23:35;;;;;;;31.03;14.90;;;;;;;;;;5060849;28;20025;-75
2023/04/13 03:26:00;;;;;;;28.08;14.27;;;;;;;;;;5062538;28;20382;-75
2023/04/13 03:28:25;;;;;;;24.40;14.30;;;;;;;;;;5048876;28;20082;-75
2023/04/13 03:30:51;;;;;;;24.07;13.20;;;;;;;;;;5064228;28;20280;-75
2023/04/13 03:33:16;;;;;;;25.63;13.30;;;;;;;;;;5057401;28;20037;-75
2023/04/13 03:35:41;;;;;;;22.87;13.27;;;;;;;;;;5042927;28;20020;-75
2023/04/13 03:38:06;;;;;;;24.60;13.20;;;;;;;;;;5059213;28;20028;-75
2023/04/13 03:40:32;;;;;;;22.95;12.93;;;;;;;;;;5057491;28;20024;-75
2023/04/13 03:42:57;;;;;;;23.70;12.18;;;;;;;;;;5061184;28;20074;-76
2023/04/13 03:45:22;;;;;;;22.67;13.10;;;;;;;;;;5064618;28;20446;-76
2023/04/13 03:47:48;;;;;;;22.85;12.23;;;;;;;;;;5062476;28;20085;-76
2023/04/13 03:50:13;;;;;;;22.02;11.63;;;;;;;;;;5040919;28;20395;-76
2023/04/13 03:52:39;;;;;;;21.77;11.85;;;;;;;;;;5057280;28;20111;-76
2023/04/13 03:55:05;;;;;;;22.38;12.75;;;;;;;;;;5065212;28;20035;-76
2023/04/13 03:57:30;;;;;;;21.60;12.57;;;;;;;;;;5028052;28;20332;-76
2023/04/13 03:59:56;;;;;;;23.17;12.37;;;;;;;;;;5039526;28;20759;-75
2023/04/13 04:02:21;;;;;;;25.27;13.33;;;;;;;;;;5041637;28;20273;-75
2023/04/13 04:04:46;;;;;;;23.50;12.93;;;;;;;;;;5041629;28;20905;-75
2023/04/13 04:07:11;;;;;;;24.83;12.80;;;;;;;;;;5038107;28;20664;-75
2023/04/13 04:09:37;;;;;;;25.45;12.75;;;;;;;;;;5028167;28;20286;-75
2023/04/13 04:12:03;;;;;;;25.58;11.75;;;;;;;;;;5040163;28;20029;-75
2023/04/13 04:14:28;;;;;;;19.10;11.30;;;;;;;;;;5043175;28;20025;-75
2023/04/13 04:16:53;;;;;;;23.20;12.20;;;;;;;;;;5045667;28;20044;-75
2023/04/13 04:19:19;;;;;;;22.80;11.63;;;;;;;;;;5038060;28;20698;-75
2023/04/13 04:21:45;;;;;;;26.17;14.55;;;;;;;;;;5040015;28;20285;-75
2023/04/13 04:24:21;;;;;;;32.80;17.45;;;;;;;;;;5039994;28;20032;-75
2023/04/13 04:26:49;;;;;;;33.10;17.13;;;;;;;;;;5038111;28;20025;-71
2023/04/13 04:29:15;;;;;;;32.13;16.42;;;;;;;;;;5040535;28;20041;-71
2023/04/13 04:31:43;;;;;;;34.75;18.02;;;;;;;;;;5024956;28;20060;-71
2023/04/13 04:34:09;;;;;;;34.05;17.92;;;;;;;;;;5040862;28;20021;-71
2023/04/13 04:36:35;;;;;;;27.90;15.15;;;;;;;;;;5039024;28;20047;-72
2023/04/13 04:39:01;;;;;;;24.48;13.82;;;;;;;;;;5043947;28;20035;-72
2023/04/13 04:41:26;;;;;;;29.17;13.60;;;;;;;;;;5027886;28;20063;-71
2023/04/13 04:43:55;;;;;;;25.15;13.07;;;;;;;;;;5048343;28;20037;-71
2023/04/13 04:46:24;;;;;;;24.60;13.60;;;;;;;;;;5035862;28;20065;-72
2023/04/13 04:48:49;;;;;;;29.27;13.85;;;;;;;;;;5012971;28;20422;-71
2023/04/13 04:51:15;;;;;;;28.30;14.52;;;;;;;;;;5046315;28;20044;-71
2023/04/13 04:53:40;;;;;;;29.93;13.30;;;;;;;;;;5045660;28;20120;-71
2023/04/13 04:56:05;;;;;;;26.07;13.30;;;;;;;;;;5051365;28;20080;-72
2023/04/13 04:58:31;;;;;;;22.83;13.20;;;;;;;;;;5063881;28;20385;-71
2023/04/13 05:00:56;;;;;;;24.57;11.57;;;;;;;;;;5060841;28;20445;-72
2023/04/13 05:03:21;;;;;;;23.13;12.05;;;;;;;;;;5063133;28;20024;-72
2023/04/13 05:05:47;;;;;;;22.33;11.90;;;;;;;;;;5066021;28;20062;-73
2023/04/13 05:08:12;;;;;;;25.10;11.67;;;;;;;;;;5066273;28;20552;-71
2023/04/13 05:10:41;;;;;;;26.50;12.07;;;;;;;;;;5071692;28;20281;-72
2023/04/13 05:13:07;;;;;;;24.83;12.43;;;;;;;;;;5060657;28;20028;-71
2023/04/13 05:15:33;;;;;;;25.40;12.15;;;;;;;;;;5068441;28;20035;-71
2023/04/13 05:17:58;;;;;;;26.50;12.40;;;;;;;;;;5065179;28;20024;-70
2023/04/13 05:20:23;;;;;;;32.78;12.35;;;;;;;;;;5064006;28;20778;-71
2023/04/13 05:22:49;;;;;;;24.63;13.00;;;;;;;;;;5063265;28;20027;-71
2023/04/13 05:25:14;;;;;;;19.90;11.52;;;;;;;;;;5060354;28;20291;-71
2023/04/13 05:27:39;;;;;;;30.63;12.23;;;;;;;;;;5058221;28;20020;-71
2023/04/13 05:30:05;;;;;;;22.02;12.00;;;;;;;;;;5063402;28;20313;-70
2023/04/13 05:32:33;;;;;;;22.65;12.15;;;;;;;;;;5057054;28;20040;-72
2023/04/13 05:34:59;;;;;;;24.02;12.23;;;;;;;;;;5059726;28;20024;-71
2023/04/13 05:37:24;;;;;;;19.08;11.32;;;;;;;;;;5069268;28;20410;-72
2023/04/13 05:39:50;;;;;;;24.03;11.83;;;;;;;;;;5068763;28;20103;-78
2023/04/13 05:42:15;;;;;;;21.85;11.18;;;;;;;;;;5079544;28;20306;-78
2023/04/13 05:44:41;;;;;;;23.37;11.27;;;;;;;;;;5071204;28;20033;-78
2023/04/13 05:47:06;;;;;;;24.40;11.33;;;;;;;;;;5068769;28;20779;-71
2023/04/13 05:49:31;;;;;;;21.70;11.30;;;;;;;;;;5065705;28;20298;-71
2023/04/13 05:51:57;;;;;;;19.00;9.90;;;;;;;;;;5058301;28;20029;-74
2023/04/13 05:54:23;;;;;;;17.88;10.07;;;;;;;;;;5050634;28;20051;-74
2023/04/13 05:56:48;;;;;;;18.73;10.10;;;;;;;;;;5046454;28;20048;-75
2023/04/13 05:59:15;;;;;;;17.40;9.93;;;;;;;;;;5039331;28;21461;-75
2023/04/13 06:01:40;;;;;;;15.82;9.35;;;;;;;;;;5061983;28;20277;-75
2023/04/13 06:04:08;;;;;;;19.63;9.73;;;;;;;;;;5069409;28;20100;-74
2023/04/13 06:06:34;;;;;;;21.55;10.43;;;;;;;;;;5063413;28;20020;-75
2023/04/13 06:09:00;;;;;;;16.83;9.55;;;;;;;;;;5070519;28;20708;-75
2023/04/13 06:11:26;;;;;;;18.03;9.67;;;;;;;;;;5065720;28;20123;-74
2023/04/13 06:13:51;;;;;;;19.38;9.32;;;;;;;;;;5065567;28;20877;-75
2023/04/13 06:16:17;;;;;;;18.00;10.05;;;;;;;;;;5047188;28;20115;-75
2023/04/13 06:18:43;;;;;;;18.30;9.55;;;;;;;;;;5061463;28;20055;-75
2023/04/13 06:21:08;;;;;;;20.20;9.85;;;;;;;;;;5059161;28;20055;-75
2023/04/13 06:23:33;;;;;;;15.77;9.27;;;;;;;;;;5049537;28;20040;-74
2023/04/13 06:25:59;;;;;;;15.93;8.97;;;;;;;;;;5065990;28;20032;-75
2023/04/13 06:28:27;;;;;;;17.23;9.20;;;;;;;;;;5068246;28;22062;-74
2023/04/13 06:30:53;;;;;;;16.88;9.27;;;;;;;;;;5072590;28;20572;-75
2023/04/13 06:33:18;;;;;;;17.30;8.48;;;;;;;;;;5046806;28;20040;-75
2023/04/13 06:35:43;;;;;;;13.43;8.30;;;;;;;;;;5063367;28;20050;-75
2023/04/13 06:38:09;;;;;;;14.00;9.00;;;;;;;;;;5065217;28;20517;-75
2023/04/13 06:40:34;;;;;;;15.98;8.52;;;;;;;;;;5063299;28;20278;-75
2023/04/13 06:42:59;;;;;;;14.15;8.45;;;;;;;6.88;nan;99712.78;5050620;28;20059;-74
2023/04/13 06:45:25;;;;;;;13.55;8.32;;;;;;;;;;5062567;28;20444;-80
2023/04/13 06:47:51;;;;;;;15.82;8.32;;;;;;;;;;5067324;28;20456;-78
2023/04/13 06:50:16;;;;;;;13.13;7.68;;;;;;;;;;5043047;28;20047;-73
2023/04/13 06:52:45;;;;;;;16.30;8.30;;;;;;;;;;5052271;28;20020;-74
2023/04/13 06:55:11;;;;;;;12.48;7.93;;;;;;;;;;5048919;28;20278;-74
2023/04/13 06:57:36;;;;;;;15.82;7.97;;;;;;;;;;5064734;28;20527;-74
2023/04/13 07:00:02;;;;;;;13.57;7.40;;;;;;;;;;5048127;28;20024;-68
2023/04/13 07:02:27;;;;;;;12.32;7.60;;;;;;;;;;5064736;28;20056;-68
2023/04/13 07:04:52;;;;;;;17.27;8.05;;;;;;;;;;5063174;28;20470;-69
2023/04/13 07:07:18;;;;;;;14.93;8.27;;;;;;;;;;5067781;28;20163;-76
2023/04/13 07:09:43;;;;;;;14.37;8.27;;;;;;;;;;5067934;28;20651;-77
2023/04/13 07:12:08;;;;;;;11.23;7.43;;;;;;;;;;5067491;28;20363;-78
2023/04/13 07:14:34;;;;;;;13.97;8.13;;;;;;;;;;5058654;28;20272;-70
2023/04/13 07:17:00;;;;;;;16.35;7.70;;;;;;;;;;5059023;28;20678;-69
2023/04/13 07:19:26;;;;;;;12.25;7.70;;;;;;;;;;5065142;28;20029;-69
2023/04/13 07:21:51;;;;;;;11.35;7.85;;;;;;;;;;5066436;28;20020;-70
2023/04/13 07:24:17;;;;;;;12.52;7.13;;;;;;;;;;5063765;28;20025;-69
2023/04/13 07:26:42;;;;;;;14.43;7.57;;;;;;;;;;5049641;28;20024;-66
2023/04/13 07:29:12;;;;;;;10.30;6.35;;;;;;;;;;5062821;28;20029;-69
2023/04/13 07:31:37;;;;;;;10.85;7.18;;;;;;;;;;5046591;28;20021;-69
2023/04/13 07:34:02;;;;;;;12.47;7.70;;;;;;;;;;5062933;28;20028;-68
2023/04/13 07:36:27;;;;;;;13.83;7.03;;;;;;;;;;5043112;28;20278;-72
2023/04/13 07:38:53;;;;;;;14.33;7.60;;;;;;;;;;5056840;28;20785;-72
2023/04/13 07:41:21;;;;;;;16.67;7.10;;;;;;;;;;5046210;28;20371;-72
2023/04/13 07:43:46;;;;;;;12.40;6.65;;;;;;;;;;5050031;28;20478;-72
2023/04/13 07:46:12;;;;;;;9.97;6.37;;;;;;;;;;5053877;28;20032;-73
2023/04/13 07:48:37;;;;;;;14.93;6.40;;;;;;;;;;5070015;28;20273;-72
2023/04/13 07:51:03;;;;;;;12.73;6.72;;;;;;;;;;5061079;28;20512;-73
2023/04/13 07:53:28;;;;;;;14.50;6.40;;;;;;;;;;5056135;28;20032;-72
2023/04/13 07:55:53;;;;;;;13.33;6.60;;;;;;;;;;5046164;28;20415;-72
2023/04/13 07:58:18;;;;;;;9.73;6.00;;;;;;;;;;5046653;28;20269;-72
2023/04/13 08:00:44;;;;;;;9.17;6.00;;;;;;;;;;5061544;28;20032;-72
2023/04/13 08:03:09;;;;;;;10.60;6.05;;;;;;;;;;5064728;28;20348;-71
2023/04/13 08:05:35;;;;;;;11.30;6.30;;;;;;;;;;5051437;28;20101;-72
2023/04/13 08:08:00;;;;;;;10.45;5.78;;;;;;;;;;5047242;28;20270;-72
2023/04/13 08:10:26;;;;;;;10.40;6.27;;;;;;;;;;5058581;28;20057;-72
2023/04/13 08:12:51;;;;;;;9.93;5.83;;;;;;;;;;5062027;28;20924;-72
2023/04/13 08:15:16;;;;;;;9.00;6.25;;;;;;;;;;5062303;28;20025;-77
2023/04/13 08:17:42;;;;;;;11.32;6.15;;;;;;;;;;5066295;28;20585;-77
2023/04/13 08:20:08;;;;;;;11.52;5.85;;;;;;;;;;5052857;28;20538;-77
2023/04/13 08:22:33;;;;;;;13.93;6.10;;;;;;;;;;5052448;28;20029;-72
2023/04/13 08:24:58;;;;;;;7.32;5.47;;;;;;;;;;5065709;28;20032;-72
2023/04/13 08:27:24;;;;;;;8.60;6.07;;;;;;;;;;5051638;28;20032;-72
2023/04/13 08:29:54;;;;;;;11.15;5.78;;;;;;;;;;5045258;28;20123;-72
2023/04/13 08:32:19;;;;;;;7.95;5.00;;;;;;;;;;5061488;28;20021;-72
2023/04/13 08:34:45;;;;;;;5.72;4.05;;;;;;;;;;5040226;28;20025;-72
2023/04/13 08:37:14;;;;;;;5.45;3.85;;;;;;;;;;5061128;28;20032;-72
2023/04/13 08:39:39;;;;;;;4.35;3.67;;;;;;;;;;5053287;28;20024;-72
2023/04/13 08:42:05;;;;;;;9.40;4.00;;;;;;;;;;5064394;28;20025;-72
2023/04/13 08:44:31;;;;;;;8.32;4.20;;;;;;;;;;5054512;28;20281;-72
2023/04/13 08:46:56;;;;;;;5.97;3.97;;;;;;;;;;5052079;28;20424;-72
2023/04/13 08:49:22;;;;;;;6.13;3.80;;;;;;;;;;5049770;28;20131;-72
2023/04/13 08:51:47;;;;;;;9.23;4.13;;;;;;;;;;5065338;28;20284;-71
2023/04/13 08:54:14;;;;;;;8.38;3.75;;;;;;;;;;5058894;28;20017;-71
2023/04/13 08:56:41;;;;;;;6.47;4.10;;;;;;;;;;5063370;28;20053;-72
2023/04/13 08:59:07;;;;;;;4.90;3.33;;;;;;;12.91;nan;99759.41;5064038;28;20024;-71
2023/04/13 09:01:35;;;;;;;4.97;3.42;;;;;;;;;;5057587;28;20044;-71
2023/04/13 09:04:00;;;;;;;4.72;3.30;;;;;;;;;;5048207;28;20036;-77
2023/04/13 09:06:31;;;;;;;4.97;3.03;;;;;;;;;;5062406;28;20400;-78
2023/04/13 09:08:58;;;;;;;4.25;2.88;;;;;;;;;;5065767;28;20629;-77
2023/04/13 09:11:24;;;;;;;4.18;2.85;;;;;;;12.98;nan;99635.78;5066434;28;20043;-76
2023/04/13 09:13:50;;;;;;;4.93;2.78;;;;;;;;;;5066673;28;20525;-77
2023/04/13 09:16:17;;;;;;;5.15;2.90;;;;;;;;;;5067722;28;20036;-71
2023/04/13 09:18:52;;;;;;;4.30;2.72;;;;;;;;;;5066974;28;20036;-70
2023/04/13 09:21:18;;;;;;;3.45;2.47;;;;;;;;;;5067139;28;20094;-72
2023/04/13 09:23:53;;;;;;;3.67;2.30;;;;;;;13.46;nan;99666.59;5048850;28;20036;-70
2023/04/13 09:26:19;;;;;;;7.97;2.45;;;;;;;14.03;nan;99734.38;5047508;28;20158;-70
2023/04/13 09:28:50;;;;;;;3.80;2.50;;;;;;;13.75;nan;99661.59;5062961;28;20049;-71
2023/04/13 09:31:15;;;;;;;3.40;2.58;;;;;;;13.81;nan;99661.34;5064415;28;20036;-70
2023/04/13 09:33:59;;;;;;;3.95;3.10;;;;;;;13.99;nan;99669.81;5065803;28;20028;-71
2023/04/13 09:36:27;;;;;;;6.70;2.78;;;;;;;;;;5062672;28;20628;-71
2023/04/13 09:38:54;;;;;;;3.25;1.85;;;;;;;;;;5051182;28;20119;-71
2023/04/13 09:41:35;;;;;;;4.38;2.00;;;;;;;;;;5065206;28;20506;-72
2023/04/13 09:44:16;;;;;;;3.00;2.20;;;;;;;;;;5083378;28;20023;-74
2023/04/13 09:46:42;;;;;;;7.75;2.58;;;;;;;;;;5082142;28;20043;-75
2023/04/13 09:49:07;;;;;;;4.68;2.72;;;;;;;14.09;nan;99629.31;5078508;28;20565;-75
2023/04/13 09:51:40;;;;;;;5.25;2.47;;;;;;;14.29;nan;99653.09;5085662;28;20111;-74
2023/04/13 09:54:06;;;;;;;4.90;2.53;;;;;;;14.39;nan;99654.94;5070933;28;20055;-75
2023/04/13 09:56:43;;;;;;;6.65;2.15;;;;;;;14.46;nan;99647.50;5063109;28;20068;-75
2023/04/13 09:59:08;;;;;;;5.95;2.40;;;;;;;14.16;nan;99596.19;5081733;28;20020;-74
2023/04/13 10:01:36;;;;;;;4.30;2.38;;;;;;;14.51;nan;99633.44;5079811;28;20071;-74
2023/04/13 10:04:04;;;;;;;4.22;2.25;;;;;;;14.60;nan;99645.91;5085341;28;20031;-74
2023/04/13 10:06:30;;;;;;;6.00;3.10;;;;;;;14.59;nan;99640.88;5087481;28;20028;-75
2023/04/13 10:08:56;;;;;;;5.68;2.50;;;;;;;14.68;nan;99647.22;5078069;28;20023;-73
2023/04/13 10:11:22;;;;;;;5.15;2.50;;;;;;;14.54;nan;99617.84;5067396;28;20111;-73
2023/04/13 10:13:55;;;;;;;3.00;2.20;;;;;;;14.73;nan;99647.19;5064719;28;20025;-73
2023/04/13 10:16:21;;;;;;;5.88;2.28;;;;;;;14.82;nan;99650.06;5064454;28;20074;-73
2023/04/13 10:19:00;;;;;;;5.07;2.50;;;;;;;14.79;nan;99640.00;5051208;28;20052;-73
2023/04/13 10:21:38;;;;;;;7.32;2.30;;;;;;;14.84;nan;99635.50;5041736;28;20040;-72
2023/04/13 10:24:04;;;;;;;5.90;2.30;;;;;;;14.74;nan;99619.63;5061462;28;20033;-73
2023/04/13 10:26:34;;;;;;;5.07;2.20;;;;;;;14.83;nan;99618.00;5065149;28;20050;-73
2023/04/13 10:29:00;;;;;;;4.63;2.47;;;;;;;14.94;nan;99625.91;5063911;28;20032;-73
2023/04/13 10:31:45;;;;;;;4.38;2.20;;;;;;;15.01;nan;99613.13;5062820;28;20194;-72
2023/04/13 10:34:23;;;;;;;4.60;2.03;;;;;;;15.14;nan;99607.25;5071110;28;20069;-72
2023/04/13 10:36:50;;;;;;;4.05;2.10;;;;;;;;;;5050789;28;20704;-72
2023/04/13 10:39:26;;;;;;;5.30;2.03;;;;;;;15.25;nan;99616.72;5062961;28;20028;-74
2023/04/13 10:42:04;;;;;;;5.40;2.00;;;;;;;;;;5064698;28;20566;-73
2023/04/13 10:44:40;;;;;;;3.20;1.95;;;;;;;;;;5058522;28;20503;-74
2023/04/13 10:47:07;;;;;;;3.35;1.92;;;;;;;;;;5038467;28;20029;-74
2023/04/13 10:49:32;;;;;;;4.70;2.17;;;;;;;15.92;nan;99606.44;5060164;28;20024;-74
2023/04/13 10:51:58;;;;;;;3.28;1.90;;;;;;;15.99;nan;99602.66;5060966;28;20020;-74
2023/04/13 10:54:28;;;;;;;3.90;2.17;;;;;;;16.13;nan;99614.97;5065228;28;20032;-74
2023/04/13 10:56:56;;;;;;;2.90;1.60;;;;;;;16.24;nan;99610.38;5063866;28;20136;-74
2023/04/13 10:59:21;;;;;;;3.67;1.80;;;;;;;16.37;nan;99615.00;5060837;28;20024;-74
2023/04/13 11:01:47;;;;;;;2.90;1.73;;;;;;;;;;5049064;28;20065;-74
2023/04/13 11:04:12;;;;;;;4.90;2.10;;;;;;;;;;5068835;28;20055;-74
2023/04/13 11:06:37;;;;;;;2.50;1.60;;;;;;;;;;5064610;28;20670;-73
2023/04/13 11:09:05;;;;;;;2.58;1.63;;;;;;;;;;5061282;28;20262;-74
2023/04/13 11:11:30;;;;;;;3.17;1.75;;;;;;;;;;5055859;28;20095;-74
2023/04/13 11:13:56;;;;;;;2.92;1.60;;;;;;;16.73;nan;99542.03;5058818;28;20111;-74
2023/04/13 11:16:21;;;;;;;2.97;1.55;;;;;;;16.85;nan;99569.00;5041693;28;20060;-74
2023/04/13 11:18:46;;;;;;;3.35;1.83;;;;;;;16.99;nan;99579.72;5061977;28;20024;-74
2023/04/13 11:21:16;;;;;;;3.00;1.55;;;;;;;17.11;nan;99588.06;5064469;28;20028;-74
2023/04/13 11:23:50;;;;;;;2.15;1.35;;;;;;;17.08;nan;99571.91;5064556;28;20091;-73
2023/04/13 11:26:16;;;;;;;5.38;2.10;;;;;;;16.94;nan;99561.97;5052943;28;20032;-74
2023/04/13 11:28:45;;;;;;;4.75;2.05;;;;;;;17.01;nan;99589.00;5067298;28;20066;-74
2023/04/13 11:31:11;;;;;;;4.27;1.70;;;;;;;17.06;nan;99576.72;5062794;28;20024;-74
2023/04/13 11:33:37;;;;;;;5.05;1.70;;;;;;;17.07;nan;99564.97;5064055;28;20039;-74
2023/04/13 11:36:03;;;;;;;4.28;1.60;;;;;;;17.23;nan;99577.78;5063000;28;20025;-74
2023/04/13 11:38:29;;;;;;;8.07;2.60;;;;;;;17.27;nan;99571.88;5060757;28;20070;-74
2023/04/13 11:41:02;;;;;;;3.22;1.63;;;;;;;17.37;nan;99567.19;5040260;28;20040;-74
2023/04/13 11:43:28;;;;;;;2.78;1.77;;;;;;;17.29;nan;99567.06;5042735;28;20025;-74
2023/04/13 11:45:54;;;;;;;8.23;2.88;;;;;;;17.31;nan;99564.88;5057463;28;20394;-74
2023/04/13 11:48:20;;;;;;;5.32;1.55;;;;;;;17.30;nan;99568.66;5068690;28;20477;-74
2023/04/13 11:50:45;;;;;;;3.80;1.77;;;;;;;17.38;nan;99567.97;5053167;28;20123;-74
2023/04/13 11:53:12;;;;;;;2.60;1.50;;;;;;;17.52;nan;99568.03;5062242;28;20751;-74
2023/04/13 11:55:38;;;;;;;2.63;1.52;;;;;;;17.59;nan;99563.13;5058337;28;20098;-74
2023/04/13 11:58:14;;;;;;;3.30;1.63;;;;;;;17.62;nan;99567.84;5046231;28;20051;-74
2023/04/13 12:00:40;;;;;;;1.85;1.40;;;;;;;17.72;nan;99562.38;5062860;28;20029;-74
2023/04/13 12:03:18;;;;;;;2.13;1.10;;;;;;;17.76;nan;99549.25;5047861;28;20028;-74
2023/04/13 12:05:45;;;;;;;2.00;1.23;;;;;;;17.87;nan;99561.34;5061861;28;20029;-74
2023/04/13 12:08:24;;;;;;;1.52;1.23;;;;;;;17.94;nan;99544.97;5060847;28;20138;-74
2023/04/13 12:10:59;;;;;;;1.80;1.08;;;;;;;;;;5061866;28;20073;-74
2023/04/13 12:13:25;;;;;;;1.77;1.17;;;;;;;;;;5049247;28;20036;-73
2023/04/13 12:15:51;;;;;;;1.75;1.00;;;;;;;18.10;nan;99538.28;5065457;28;20058;-74
2023/04/13 12:18:19;;;;;;;1.38;1.00;;;;;;;18.19;nan;99533.03;5046213;28;20040;-74
2023/04/13 12:20:47;;;;;;;2.17;1.10;;;;;;;18.24;nan;99531.09;5064500;28;20020;-74
2023/04/13 12:23:19;;;;;;;1.70;1.08;;;;;;;;;;5059814;28;20020;-74
2023/04/13 12:25:55;;;;;;;5.43;1.30;;;;;;;;;;5064315;28;20025;-75
2023/04/13 12:28:20;;;;;;;1.52;1.13;;;;;;;18.19;nan;99559.69;5064121;28;20032;-72
2023/04/13 12:30:46;;;;;;;2.28;1.08;;;;;;;;;;5059757;28;20107;-72
2023/04/13 12:33:12;;;;;;;2.03;1.20;;;;;;;18.17;nan;99522.69;5044306;28;20055;-73
2023/04/13 12:35:38;;;;;;;1.65;0.93;;;;;;;18.18;nan;99507.50;5058098;28;20024;-73
2023/04/13 12:38:04;;;;;;;2.00;1.00;;;;;;;18.30;nan;99513.09;5059471;28;20028;-73
2023/04/13 12:40:29;;;;;;;2.60;1.10;;;;;;;18.36;nan;99509.22;5059161;28;20036;-72
2023/04/13 12:42:54;;;;;;;2.05;1.00;;;;;;;18.37;nan;99500.16;5060714;28;20028;-74
2023/04/13 12:45:20;;;;;;;1.85;1.17;;;;;;;18.26;nan;99512.91;5064171;28;20033;-74
2023/04/13 12:47:45;;;;;;;1.35;1.00;;;;;;;18.62;nan;99546.03;5051157;28;20486;-74
2023/04/13 12:50:11;;;;;;;2.65;1.30;;;;;;;18.15;nan;99500.06;5062452;28;20604;-72
2023/04/13 12:52:40;;;;;;;1.83;0.90;;;;;;;18.31;nan;99503.22;5047164;28;20082;-74
2023/04/13 12:55:06;;;;;;;2.53;1.20;;;;;;;18.38;nan;99503.63;5060531;28;20032;-74
2023/04/13 12:57:31;;;;;;;4.05;1.17;;;;;;;18.46;nan;99509.03;5055371;28;20024;-74
2023/04/13 12:59:57;;;;;;;2.00;1.20;;;;;;;18.52;nan;99498.25;5056436;28;20032;-74
2023/04/13 13:02:23;;;;;;;2.53;1.00;;;;;;;18.43;nan;99479.50;5062264;28;20029;-74
2023/04/13 13:04:55;;;;;;;1.98;1.10;;;;;;;18.37;nan;99470.84;5040347;28;20032;-75
2023/04/13 13:07:22;;;;;;;3.10;1.02;;;;;;;18.28;nan;99438.00;5044273;28;20131;-73
2023/04/13 13:09:47;;;;;;;2.72;1.17;;;;;;;18.55;nan;99482.44;5066352;28;20497;-72
2023/04/13 13:12:13;;;;;;;1.63;0.90;;;;;;;18.61;nan;99477.81;5064595;28;20123;-72
2023/04/13 13:14:38;;;;;;;1.77;1.20;;;;;;;18.63;nan;99472.97;5062872;28;20017;-72
2023/04/13 13:17:04;;;;;;;2.38;1.10;;;;;;;18.67;nan;99474.69;5065169;28;20024;-73
2023/04/13 13:19:29;;;;;;;1.85;1.00;;;;;;;18.80;nan;99469.69;5046907;28;20486;-72
2023/04/13 13:21:55;;;;;;;2.47;1.10;;;;;;;18.80;nan;99457.13;5061910;28;20061;-73
2023/04/13 13:24:20;;;;;;;2.92;1.42;;;;;;;18.70;nan;99460.00;5061803;28;20021;-73
2023/04/13 13:26:46;;;;;;;1.63;0.95;;;;;;;18.56;nan;99457.38;5061226;28;20029;-72
2023/04/13 13:29:11;;;;;;;3.53;1.20;;;;;;;18.53;nan;99438.50;5061510;28;20470;-73
2023/04/13 13:31:37;;;;;;;2.53;0.90;;;;;;;18.68;nan;99443.50;5063558;28;20024;-73
2023/04/13 13:34:02;;;;;;;1.88;1.00;;;;;;;18.50;nan;99434.56;5044993;28;20031;-73
2023/04/13 13:36:29;;;;;;;1.50;1.00;;;;;;;18.46;nan;99425.59;5046941;28;20445;-73